Time;durP1;ratioP1;P1;durP2;ratioP2;P2;SDS_P1;SDS_P2;PMS_P1;PMS_P2;Temp;Humidity;BMP_temperature;BMP_pressure;BME280_temperature;BME280_humidity;BME280_pressure;Samples;Min_cycle;Max_cycle;Signal;HPM_P1;HPM_P2
2022/07/22 00:01:44;;;;;;;9.50;8.60;;;;;;;;;;6215082;23;20004;-92
2022/07/22 00:04:10;;;;;;;9.02;8.32;;;;;;;;;;6215122;23;20586;-92
2022/07/22 00:06:36;;;;;;;9.45;8.65;;;;;;;;;;6215329;23;20011;-94
2022/07/22 00:09:03;;;;;;;10.15;8.55;;;;;;;;;;6214809;23;20276;-92
2022/07/22 00:11:29;;;;;;;9.05;8.35;;;;;;;;;;6215042;23;20044;-95
2022/07/22 00:13:55;;;;;;;9.55;8.82;;;;;;;;;;6188422;23;20012;-95
2022/07/22 00:16:21;;;;;;;9.80;8.98;;;;;;;;;;6215162;23;20355;-93
2022/07/22 00:18:47;;;;;;;9.00;8.27;;;;;;;;;;6214808;23;20012;-92
2022/07/22 00:21:13;;;;;;;8.25;7.63;;;;;;;;;;6188571;23;20004;-93
2022/07/22 00:23:39;;;;;;;8.75;8.15;;;;;;;;;;6215242;23;20028;-93
2022/07/22 00:26:05;;;;;;;9.07;7.60;;;;;;;;;;6214500;23;20000;-92
2022/07/22 00:28:31;;;;;;;9.73;8.73;;;;;;;;;;6215190;23;20008;-92
2022/07/22 00:30:58;;;;;;;9.35;8.45;;;;;;;;;;6214607;23;20017;-95
2022/07/22 00:33:24;;;;;;;10.63;9.73;;;;;;;;;;6215234;23;20001;-93
2022/07/22 00:35:50;;;;;;;10.18;9.38;;;;;;;;;;6214501;23;20005;-94
2022/07/22 00:38:16;;;;;;;10.55;9.95;;;;;;;;;;6187996;23;20000;-94
2022/07/22 00:40:42;;;;;;;10.00;9.05;;;;;;;;;;6214521;23;20001;-94
2022/07/22 00:43:08;;;;;;;10.52;9.73;;;;;;;;;;6214528;23;20063;-93
2022/07/22 00:45:34;;;;;;;10.82;9.88;;;;;;;;;;6213908;23;20009;-93
2022/07/22 00:48:00;;;;;;;9.50;8.60;;;;;;;;;;6212412;23;20009;-92
2022/07/22 00:50:26;;;;;;;9.95;9.27;;;;;;;;;;6212421;23;20007;-94
2022/07/22 00:52:53;;;;;;;8.25;7.75;;;;;;;;;;6211635;23;20517;-93
2022/07/22 00:55:19;;;;;;;9.60;8.85;;;;;;;;;;6184848;23;20839;-93
2022/07/22 00:57:45;;;;;;;9.68;8.98;;;;;;;;;;6211729;23;20047;-93
2022/07/22 01:00:13;;;;;;;9.15;8.35;;;;;;;;;;6212544;23;20008;-94
2022/07/22 01:02:39;;;;;;;9.38;8.35;;;;;;;;;;6187614;23;20504;-94
2022/07/22 01:05:06;;;;;;;10.35;9.35;;;;;;;;;;6213996;23;20008;-93
2022/07/22 01:07:32;;;;;;;10.90;9.77;;;;;;;;;;6214775;23;20066;-93
2022/07/22 01:09:58;;;;;;;9.60;8.98;;;;;;;;;;6214619;23;20105;-93
2022/07/22 01:12:24;;;;;;;9.52;8.73;;;;;;;;;;6187488;23;20005;-92
2022/07/22 01:14:50;;;;;;;10.73;9.70;;;;;;;;;;6214312;23;20078;-92
2022/07/22 01:17:16;;;;;;;10.88;10.13;;;;;;;;;;6187403;23;20095;-91
2022/07/22 01:19:42;;;;;;;10.48;9.77;;;;;;;;;;6187093;23;20004;-92
2022/07/22 01:22:08;;;;;;;9.48;8.77;;;;;;;;;;6186934;23;20036;-93
2022/07/22 01:24:34;;;;;;;10.77;9.88;;;;;;;;;;6214190;23;20004;-91
2022/07/22 01:27:01;;;;;;;10.80;10.00;;;;;;;;;;6187647;23;20001;-91
2022/07/22 01:29:27;;;;;;;10.05;9.32;;;;;;;;;;6214062;23;20009;-92
2022/07/22 01:31:53;;;;;;;11.52;10.85;;;;;;;;;;6213810;23;20040;-92
2022/07/22 01:34:19;;;;;;;10.20;9.43;;;;;;;;;;6214034;23;20185;-93
2022/07/22 01:36:45;;;;;;;11.75;10.98;;;;;;;;;;6211817;23;20559;-93
2022/07/22 01:39:11;;;;;;;10.55;9.70;;;;;;;;;;6211061;23;20004;-93
2022/07/22 01:41:37;;;;;;;11.55;10.65;;;;;;;;;;6210965;23;20016;-94
2022/07/22 01:44:04;;;;;;;10.63;9.85;;;;;;;;;;6184492;23;20004;-92
2022/07/22 01:46:30;;;;;;;9.88;8.98;;;;;;;;;;6184817;23;20062;-96
2022/07/22 01:48:56;;;;;;;10.48;9.57;;;;;;;;;;6210846;23;20000;-92
2022/07/22 01:51:22;;;;;;;10.13;9.40;;;;;;;;;;6184175;23;20046;-95
2022/07/22 01:53:48;;;;;;;10.90;9.88;;;;;;;;;;6184587;23;20040;-93
2022/07/22 01:56:14;;;;;;;10.13;9.38;;;;;;;;;;6211886;23;20080;-94
2022/07/22 01:58:40;;;;;;;9.32;8.73;;;;;;;;;;6213743;23;19997;-92
2022/07/22 02:01:06;;;;;;;10.40;9.48;;;;;;;;;;6213646;23;20004;-94
2022/07/22 02:03:32;;;;;;;11.40;10.15;;;;;;;;;;6212911;23;20013;-93
2022/07/22 02:05:59;;;;;;;11.32;10.52;;;;;;;;;;6213344;23;20056;-93
2022/07/22 02:08:25;;;;;;;10.68;9.25;;;;;;;;;;6213887;23;20004;-93
2022/07/22 02:10:51;;;;;;;11.23;10.38;;;;;;;;;;6187116;23;20023;-93
2022/07/22 02:13:17;;;;;;;11.85;10.90;;;;;;;;;;6213870;23;20005;-92
2022/07/22 02:15:43;;;;;;;11.68;10.88;;;;;;;;;;6213290;23;20395;-92
2022/07/22 02:18:16;;;;;;;10.93;9.90;;;;;;;;;;6213726;23;20735;-92
2022/07/22 02:20:42;;;;;;;10.32;9.63;;;;;;;;;;6186612;23;20008;-92
2022/07/22 02:23:10;;;;;;;12.05;10.65;;;;;;;;;;6213784;23;20009;-92
2022/07/22 02:25:36;;;;;;;9.88;9.18;;;;;;;;;;6213908;23;20004;-92
2022/07/22 02:28:02;;;;;;;10.75;10.00;;;;;;;;;;6213022;23;20009;-94
2022/07/22 02:30:29;;;;;;;12.05;9.82;;;;;;;;;;6213729;23;20016;-91
2022/07/22 02:32:55;;;;;;;9.88;8.73;;;;;;;;;;6213557;23;20016;-92
2022/07/22 02:35:21;;;;;;;12.00;11.05;;;;;;;;;;6186851;23;20577;-90
2022/07/22 02:37:47;;;;;;;10.48;9.57;;;;;;;;;;6187321;23;20044;-92
2022/07/22 02:40:13;;;;;;;10.38;9.65;;;;;;;;;;6213411;23;20004;-92
2022/07/22 02:42:39;;;;;;;11.30;10.60;;;;;;;;;;6187089;23;20075;-93
2022/07/22 02:45:05;;;;;;;10.63;9.95;;;;;;;;;;6213356;23;20004;-93
2022/07/22 02:47:31;;;;;;;10.68;9.95;;;;;;;;;;6213323;23;19997;-92
2022/07/22 02:49:57;;;;;;;11.05;10.25;;;;;;;;;;6213260;23;20001;-93
2022/07/22 02:52:23;;;;;;;10.18;9.40;;;;;;;;;;6186680;23;20478;-94
2022/07/22 02:54:49;;;;;;;12.35;11.23;;;;;;;;;;6213332;23;20004;-93
2022/07/22 02:57:15;;;;;;;12.90;11.50;;;;;;;;;;6213281;23;20005;-92
2022/07/22 02:59:41;;;;;;;10.90;10.02;;;;;;;;;;6213660;23;20043;-93
2022/07/22 03:02:07;;;;;;;10.30;9.60;;;;;;;;;;6213095;23;20005;-93
2022/07/22 03:04:33;;;;;;;11.43;10.63;;;;;;;;;;6207687;23;20032;-91
2022/07/22 03:07:00;;;;;;;11.32;10.43;;;;;;;;;;6213355;23;19997;-93
2022/07/22 03:09:26;;;;;;;12.30;11.27;;;;;;;;;;6213408;23;20012;-93
2022/07/22 03:11:52;;;;;;;11.30;10.50;;;;;;;;;;6213683;23;20020;-93
2022/07/22 03:14:18;;;;;;;11.13;10.05;;;;;;;;;;6212354;23;20004;-92
2022/07/22 03:16:44;;;;;;;13.25;12.25;;;;;;;;;;6215931;23;20032;-93
2022/07/22 03:19:10;;;;;;;11.73;10.82;;;;;;;;;;6213579;23;20542;-93
2022/07/22 03:21:36;;;;;;;16.05;12.07;;;;;;;;;;6215229;23;20074;-93
2022/07/22 03:24:02;;;;;;;11.07;10.35;;;;;;;;;;6215363;23;20075;-92
2022/07/22 03:26:28;;;;;;;12.05;11.05;;;;;;;;;;6213346;23;20095;-93
2022/07/22 03:28:54;;;;;;;11.50;10.45;;;;;;;;;;6214848;23;20008;-92
2022/07/22 03:31:20;;;;;;;12.45;11.05;;;;;;;;;;6214819;23;20015;-93
2022/07/22 03:33:46;;;;;;;14.30;13.02;;;;;;;;;;6214662;23;20001;-93
2022/07/22 03:36:12;;;;;;;12.65;11.75;;;;;;;;;;6213414;23;20087;-92
2022/07/22 03:38:38;;;;;;;10.30;9.52;;;;;;;;;;6214848;23;20003;-92
2022/07/22 03:41:04;;;;;;;12.27;11.48;;;;;;;;;;6214524;23;20064;-92
2022/07/22 03:43:31;;;;;;;10.68;9.98;;;;;;;;;;6215081;23;20008;-93
2022/07/22 03:45:57;;;;;;;13.10;11.63;;;;;;;;;;6214947;23;20386;-94
2022/07/22 03:48:23;;;;;;;11.82;10.82;;;;;;;;;;6215239;23;20001;-92
2022/07/22 03:50:49;;;;;;;12.23;11.25;;;;;;;;;;6215261;23;20023;-92
2022/07/22 03:53:16;;;;;;;12.07;11.18;;;21.40;64.50;;;;;;6215112;23;20012;-93
2022/07/22 03:55:42;;;;;;;10.80;9.98;;;;;;;;;;6215355;23;20012;-92
2022/07/22 03:58:08;;;;;;;10.75;10.00;;;;;;;;;;6213636;23;20016;-93
2022/07/22 04:00:34;;;;;;;11.77;10.95;;;;;;;;;;6213553;23;20005;-93
2022/07/22 04:03:00;;;;;;;11.63;10.73;;;;;;;;;;6215024;23;20020;-93
2022/07/22 04:05:26;;;;;;;11.32;10.52;;;;;;;;;;6215017;23;20005;-93
2022/07/22 04:07:52;;;;;;;10.95;10.25;;;;;;;;;;6215198;23;20653;-93
2022/07/22 04:10:18;;;;;;;11.82;10.93;;;;;;;;;;6215029;23;20067;-93
2022/07/22 04:12:44;;;;;;;11.55;10.63;;;;;;;;;;6215260;23;20043;-92
2022/07/22 04:15:10;;;;;;;12.52;11.48;;;;;;;;;;6215147;23;20011;-93
2022/07/22 04:17:36;;;;;;;12.27;11.32;;;;;;;;;;6215490;23;20064;-91
2022/07/22 04:20:02;;;;;;;11.63;10.60;;;;;;;;;;6188348;23;20001;-93
2022/07/22 04:22:28;;;;;;;11.18;10.38;;;;;;;;;;6214897;23;20036;-93
2022/07/22 04:24:55;;;;;;;10.82;10.15;;;;;;;;;;6188456;23;20016;-92
2022/07/22 04:27:21;;;;;;;11.38;10.27;;;;;;;;;;6214626;23;20020;-93
2022/07/22 04:29:47;;;;;;;10.98;10.00;;;;;;;;;;6214411;23;20088;-93
2022/07/22 04:32:13;;;;;;;10.85;10.00;;;;;;;;;;6214343;23;20064;-92
2022/07/22 04:34:39;;;;;;;11.27;10.25;;;;;;;;;;6215530;23;20043;-93
2022/07/22 04:37:05;;;;;;;11.45;10.50;;;;;;;;;;6214321;23;20454;-92
2022/07/22 04:39:31;;;;;;;11.18;10.32;;;;;;;;;;6187851;23;19997;-93
2022/07/22 04:41:57;;;;;;;12.50;11.60;;;;;;;;;;6214923;23;20008;-92
2022/07/22 04:44:23;;;;;;;12.38;11.35;;;;;;;;;;6214782;23;20017;-93
2022/07/22 04:46:49;;;;;;;11.57;10.70;;;;;;;;;;6214423;23;20028;-92
2022/07/22 04:49:15;;;;;;;12.93;11.90;;;;;;;;;;6214832;23;20004;-93
2022/07/22 04:51:41;;;;;;;13.30;11.68;;;;;;;;;;6214620;23;20086;-91
2022/07/22 04:54:07;;;;;;;12.35;11.25;;;;;;;;;;6214978;23;20007;-93
2022/07/22 04:56:33;;;;;;;12.68;11.68;;;;;;;;;;6188413;23;20031;-91
2022/07/22 04:58:59;;;;;;;12.32;11.43;;;;;;;;;;6214068;23;19997;-92
2022/07/22 05:01:25;;;;;;;12.55;11.65;;;;;;;;;;6214926;23;20016;-93
2022/07/22 05:03:51;;;;;;;14.50;13.40;;;;;;;;;;6214135;23;20052;-93
2022/07/22 05:06:18;;;;;;;14.07;12.65;;;;;;;;;;6214682;23;20011;-91
2022/07/22 05:08:44;;;;;;;12.68;11.77;;;;;;;;;;6187781;23;20004;-92
2022/07/22 05:11:10;;;;;;;12.73;11.75;;;;;;;;;;6214448;23;20569;-93
2022/07/22 05:13:36;;;;;;;13.88;12.38;;;;;;;;;;6187636;23;20011;-93
2022/07/22 05:16:05;;;;;;;14.48;13.13;;;;;;;;;;6187967;23;21055;-93
2022/07/22 05:18:32;;;;;;;11.48;10.77;;;;;;;;;;6187412;23;20000;-93
2022/07/22 05:20:58;;;;;;;12.75;11.55;;;;;;;;;;6214695;23;20075;-92
2022/07/22 05:23:24;;;;;;;11.85;10.85;;;;;;;;;;6188229;23;20032;-92
2022/07/22 05:25:50;;;;;;;12.27;11.20;;;;;;;;;;6214768;23;20128;-93
2022/07/22 05:28:16;;;;;;;14.52;13.38;;;;;;;;;;6214702;23;20032;-91
2022/07/22 05:30:42;;;;;;;12.50;11.60;;;;;;;;;;6187981;23;20092;-91
2022/07/22 05:33:08;;;;;;;11.77;10.93;;;;;;;;;;6214570;23;20015;-93
2022/07/22 05:35:34;;;;;;;11.25;10.57;;;;;;;;;;6187427;23;20000;-93
2022/07/22 05:38:00;;;;;;;14.60;12.00;;;;;;;;;;6214520;23;20063;-93
2022/07/22 05:40:26;;;;;;;12.98;11.65;;;;;;;;;;6214508;23;20074;-93
2022/07/22 05:42:52;;;;;;;12.65;11.65;;;;;;;;;;6187795;23;20009;-92
2022/07/22 05:45:18;;;;;;;13.60;11.80;;;;;;;;;;6188028;23;19997;-91
2022/07/22 05:47:44;;;;;;;12.43;11.13;;;;;;;;;;6214375;23;20027;-92
2022/07/22 05:50:10;;;;;;;11.13;10.13;;;;;;;;;;6214086;23;20444;-92
2022/07/22 05:52:37;;;;;;;16.58;11.18;;;21.80;66.50;;;;;;6214301;23;20009;-94
2022/07/22 05:55:03;;;;;;;11.35;10.55;;;;;;;;;;6214477;23;20001;-93
2022/07/22 05:57:29;;;;;;;13.57;10.90;;;;;;;;;;6214294;23;20001;-95
2022/07/22 05:59:55;;;;;;;10.27;9.38;;;;;;;;;;6214543;23;20331;-92
2022/07/22 06:02:21;;;;;;;10.05;9.23;;;;;;;;;;6214516;23;20088;-93
2022/07/22 06:04:47;;;;;;;11.15;10.15;;;;;;;;;;6214246;23;20084;-93
2022/07/22 06:07:13;;;;;;;9.88;8.98;;;;;;;;;;6214674;23;20004;-92
2022/07/22 06:09:39;;;;;;;11.38;10.68;;;;;;;;;;6214237;23;20062;-93
2022/07/22 06:12:05;;;;;;;10.40;9.38;;;22.50;83.60;;;;;;6213645;23;20399;-92
2022/07/22 06:14:31;;;;;;;11.15;10.20;;;;;;;;;;6187759;23;20001;-93
2022/07/22 06:16:58;;;;;;;9.77;9.00;;;;;;;;;;6214080;23;20086;-92
2022/07/22 06:19:24;;;;;;;14.57;10.52;;;;;;;;;;6214676;23;20068;-92
2022/07/22 06:21:50;;;;;;;10.75;9.80;;;23.00;65.30;;;;;;6214223;23;20079;-93
2022/07/22 06:24:16;;;;;;;13.43;10.70;;;;;;;;;;6188207;23;20039;-92
2022/07/22 06:26:43;;;;;;;10.40;9.40;;;;;;;;;;6214405;23;20054;-93
2022/07/22 06:29:09;;;;;;;11.00;10.18;;;;;;;;;;6214329;23;20008;-92
2022/07/22 06:31:35;;;;;;;10.07;9.18;;;;;;;;;;6214216;23;20013;-93
2022/07/22 06:34:05;;;;;;;10.23;9.20;;;;;;;;;;6214700;23;20000;-93
2022/07/22 06:36:32;;;;;;;14.38;7.97;;;;;;;;;;6214587;23;20008;-92
2022/07/22 06:38:58;;;;;;;9.48;8.18;;;;;;;;;;6214256;23;20005;-92
2022/07/22 06:41:24;;;;;;;8.38;7.88;;;;;;;;;;6214373;23;20013;-92
2022/07/22 06:43:50;;;;;;;11.75;7.45;;;;;;;;;;6214140;23;20047;-93
2022/07/22 06:46:16;;;;;;;13.00;7.43;;;;;;;;;;6214139;23;20058;-92
2022/07/22 06:48:42;;;;;;;6.40;5.80;;;;;;;;;;6214094;23;20001;-93
2022/07/22 06:51:08;;;;;;;10.55;6.70;;;;;;;;;;6215914;23;20011;-93
2022/07/22 06:53:34;;;;;;;10.67;6.50;;;;;;;;;;6216392;23;20009;-93
2022/07/22 06:56:00;;;;;;;9.93;6.05;;;;;;;;;;6216216;23;20005;-93
2022/07/22 06:58:27;;;;;;;6.97;6.00;;;;;;;;;;6216360;23;20345;-93
2022/07/22 07:00:53;;;;;;;6.28;5.65;;;;;;;;;;6189755;23;20009;-93
2022/07/22 07:03:19;;;;;;;6.32;3.58;;;;;;;;;;6195275;23;20020;-93
2022/07/22 07:05:45;;;;;;;4.72;3.03;;;;;;;;;;6214843;23;20012;-93
2022/07/22 07:08:11;;;;;;;4.28;3.10;;;;;;;;;;6216016;23;20012;-92
2022/07/22 07:10:37;;;;;;;4.18;2.78;;;;;;;;;;6215534;23;20440;-92
2022/07/22 07:13:02;;;;;;;;;;;31.70;47.20;;;;;;6217290;23;20035;-91
2022/07/22 07:15:28;;;;;;;29.17;3.85;;;;;;;;;;6216380;23;20322;-94
2022/07/22 07:17:56;;;;;;;3.58;3.08;;;33.70;43.30;;;;;;6214462;23;20411;-92
2022/07/22 07:20:22;;;;;;;2.97;2.50;;;;;;;;;;6214510;23;20099;-94
2022/07/22 07:22:48;;;;;;;4.10;2.88;;;;;;;;;;6215844;23;20032;-94
2022/07/22 07:25:15;;;;;;;5.90;2.80;;;35.50;39.40;;;;;;6215623;23;20567;-92
2022/07/22 07:27:41;;;;;;;6.57;2.35;;;;;;;;;;6216082;23;20009;-93
2022/07/22 07:30:08;;;;;;;3.13;2.28;;;;;;;;;;6215453;23;20005;-93
2022/07/22 07:32:35;;;;;;;3.22;2.25;;;;;;;;;;6216443;23;20009;-94
2022/07/22 07:35:01;;;;;;;6.03;2.50;;;36.60;38.10;;;;;;6215772;23;20006;-92
2022/07/22 07:37:27;;;;;;;2.92;1.83;;;;;;;;;;6214665;23;20078;-94
2022/07/22 07:39:53;;;;;;;10.55;2.33;;;;;;;;;;6215486;23;20435;-93
2022/07/22 07:42:19;;;;;;;5.05;2.13;;;;;;;;;;6216044;23;20008;-94
2022/07/22 07:44:45;;;;;;;6.47;2.58;;;;;;;;;;6215989;23;20011;-93
2022/07/22 07:47:15;;;;;;;5.97;2.50;;;;;;;;;;6215233;23;20059;-93
2022/07/22 07:49:41;;;;;;;5.20;2.00;;;;;;;;;;6215609;23;20020;-93
2022/07/22 07:52:07;;;;;;;4.25;1.90;;;;;;;;;;6215581;23;20012;-94
2022/07/22 07:54:33;;;;;;;18.40;17.38;;;37.40;54.00;;;;;;6215263;23;20437;-94
2022/07/22 07:56:59;;;;;;;19.90;18.88;;;;;;;;;;6215493;23;20009;-93
2022/07/22 07:59:25;;;;;;;19.08;18.10;;;;;;;;;;6215591;23;20610;-92
2022/07/22 08:01:51;;;;;;;18.40;17.52;;;;;;;;;;6214938;23;20008;-93
2022/07/22 08:04:17;;;;;;;17.00;16.02;;;;;;;;;;6215010;23;20074;-93
2022/07/22 08:06:43;;;;;;;18.17;17.15;;;;;;;;;;6215614;23;20027;-93
2022/07/22 08:09:10;;;;;;;18.58;17.35;;;;;;;;;;6215468;23;20035;-93
2022/07/22 08:11:36;;;;;;;19.45;18.45;;;;;;;;;;6215319;23;20017;-94
2022/07/22 08:14:02;;;;;;;19.25;18.15;;;;;;;;;;6188706;23;20000;-94
2022/07/22 08:16:28;;;;;;;17.98;17.08;;;;;;;;;;6188828;23;20430;-94
2022/07/22 08:18:54;;;;;;;17.67;16.58;;;;;;;;;;6214902;23;20076;-92
2022/07/22 08:21:20;;;;;;;20.67;19.63;;;;;;;;;;6215375;23;20036;-93
2022/07/22 08:23:46;;;;;;;18.95;18.00;;;;;;;;;;6214916;23;20001;-94
2022/07/22 08:26:12;;;;;;;19.80;18.75;;;;;;;;;;6215149;23;20032;-93
2022/07/22 08:28:38;;;;;;;19.13;17.77;;;;;;;;;;6215063;23;20000;-92
2022/07/22 08:31:04;;;;;;;17.45;16.50;;;;;;;;;;6188330;23;20015;-93
2022/07/22 08:33:30;;;;;;;18.67;17.52;;;;;;;;;;6215309;23;20439;-93
2022/07/22 08:35:56;;;;;;;18.67;17.77;;;;;;;;;;6214566;23;19996;-93
2022/07/22 08:38:22;;;;;;;20.25;19.25;;;;;;;;;;6214910;23;20033;-93
2022/07/22 08:40:48;;;;;;;20.50;19.60;;;40.80;32.60;;;;;;6214706;23;20008;-93
2022/07/22 08:43:14;;;;;;;20.90;19.70;;;;;;;;;;6214714;23;20012;-92
2022/07/22 08:45:41;;;;;;;19.98;18.88;;;41.50;31.70;;;;;;6215093;23;20024;-93
2022/07/22 08:48:07;;;;;;;20.65;19.67;;;;;;;;;;6187876;23;20005;-91
2022/07/22 08:50:33;;;;;;;22.48;21.13;;;;;;;;;;6214975;23;20005;-93
2022/07/22 08:52:59;;;;;;;21.58;20.60;;;;;;;;;;6215122;23;20415;-92
2022/07/22 08:55:25;;;;;;;22.92;21.83;;;;;;;;;;6215262;23;20028;-91
2022/07/22 08:57:51;;;;;;;20.23;19.23;;;42.80;31.60;;;;;;6188249;23;20436;-94
2022/07/22 09:00:21;;;;;;;23.27;22.23;;;43.10;30.70;;;;;;6214279;23;20005;-93
2022/07/22 09:02:47;;;;;;;22.50;21.15;;;;;;;;;;6214000;23;20092;-93
2022/07/22 09:05:14;;;;;;;21.13;20.20;;;;;;;;;;6214454;23;20297;-93
2022/07/22 09:07:42;;;;;;;22.02;21.13;;;42.50;30.00;;;;;;6214660;23;20015;-95
2022/07/22 09:10:21;;;;;;;25.85;24.73;;;42.30;29.80;;;;;;6214397;23;20001;-94
2022/07/22 09:13:01;;;;;;;25.25;24.05;;;42.10;29.90;;;;;;6214839;23;20012;-93
2022/07/22 09:15:31;;;;;;;26.70;25.40;;;;;;;;;;6214312;23;20727;-94
2022/07/22 09:18:00;;;;;;;27.15;25.75;;;42.80;29.50;;;;;;6214347;23;20001;-93
2022/07/22 09:20:26;;;;;;;26.50;25.20;;;42.50;29.60;;;;;;6214235;23;20011;-93
2022/07/22 09:22:53;;;;;;;28.30;26.88;;;;;;;;;;6214388;23;20025;-92
2022/07/22 09:25:28;;;;;;;29.63;28.23;;;;;;;;;;6214585;23;20028;-92
2022/07/22 09:28:11;;;;;;;28.57;27.27;;;42.80;29.50;;;;;;6214922;23;20403;-94
2022/07/22 09:30:51;;;;;;;29.95;28.35;;;43.30;29.40;;;;;;6214482;23;20447;-93
2022/07/22 09:33:17;;;;;;;29.08;27.73;;;42.80;29.30;;;;;;6214252;23;20011;-93
2022/07/22 09:35:44;;;;;;;29.85;28.58;;;42.90;29.70;;;;;;6211042;23;20004;-93
2022/07/22 09:38:12;;;;;;;32.45;30.83;;;42.90;29.30;;;;;;6210894;23;20001;-94
2022/07/22 09:40:45;;;;;;;29.73;28.33;;;;;;;;;;6184173;23;20435;-92
2022/07/22 09:43:16;;;;;;;29.23;27.83;;;43.30;28.80;;;;;;6211014;23;20005;-93
2022/07/22 09:45:53;;;;;;;32.33;30.92;;;43.10;28.80;;;;;;6210407;23;20008;-93
2022/07/22 09:48:20;;;;;;;33.30;31.75;;;;;;;;;;6214314;23;20008;-94
2022/07/22 09:50:47;;;;;;;33.35;31.75;;;43.10;28.80;;;;;;6186894;23;20096;-93
2022/07/22 09:53:13;;;;;;;34.15;32.45;;;42.70;29.00;;;;;;6214429;23;20549;-94
2022/07/22 09:55:39;;;;;;;33.08;31.48;;;;;;;;;;6187666;23;20011;-92
2022/07/22 09:58:07;;;;;;;35.35;33.75;;;42.40;29.00;;;;;;6213962;23;20039;-93
2022/07/22 10:00:34;;;;;;;32.80;31.20;;;42.60;29.00;;;;;;6214302;23;20662;-94
2022/07/22 10:03:02;;;;;;;36.03;34.13;;;43.00;29.00;;;;;;6189289;23;20012;-93
2022/07/22 10:05:30;;;;;;;33.33;31.60;;;;;;;;;;6214466;23;20100;-93
2022/07/22 10:07:56;;;;;;;34.47;32.90;;;;;;;;;;6212698;23;20083;-93
2022/07/22 10:10:28;;;;;;;32.08;30.63;;;42.80;28.70;;;;;;6213749;23;20009;-94
2022/07/22 10:12:56;;;;;;;33.40;31.88;;;43.10;28.60;;;;;;6213796;23;20539;-94
2022/07/22 10:15:23;;;;;;;36.17;34.58;;;42.80;28.80;;;;;;6214000;23;20054;-93
2022/07/22 10:17:53;;;;;;;35.30;33.70;;;42.80;28.80;;;;;;6213580;23;20028;-95
2022/07/22 10:20:21;;;;;;;37.03;35.22;;;43.10;28.80;;;;;;6211827;23;20513;-93
2022/07/22 10:22:54;;;;;;;35.13;33.45;;;43.20;29.40;;;;;;6214128;23;20008;-93
2022/07/22 10:25:22;;;;;;;34.65;32.97;;;43.40;29.10;;;;;;6213393;23;20004;-93
2022/07/22 10:27:48;;;;;;;34.92;33.28;;;;;;;;;;6213407;23;20013;-93
2022/07/22 10:30:14;;;;;;;;;;;43.80;28.50;;;;;;6214541;23;20250;-93
2022/07/22 10:32:40;;;;;;;34.78;33.15;;;;;;;;;;6213827;23;19959;-93
2022/07/22 10:35:08;;;;;;;;;;;43.80;28.10;;;;;;6214142;23;20387;-95
2022/07/22 10:37:34;;;;;;;31.58;29.95;;;;;;;;;;6237344;23;19899;-95
2022/07/22 10:40:22;;;;;;;;;;;43.50;28.10;;;;;;6214718;23;20080;-95
2022/07/22 10:42:56;;;;;;;33.58;31.92;;;43.80;45.60;;;;;;6213247;23;20216;-94
2022/07/22 10:45:37;;;;;;;33.97;32.33;;;43.80;45.20;;;;;;6214079;23;20008;-92
2022/07/22 10:48:07;;;;;;;34.67;33.17;;;43.70;27.90;;;;;;6213570;23;20001;-91
2022/07/22 10:50:43;;;;;;;34.00;32.50;;;;;;;;;;6213206;23;20066;-94
2022/07/22 10:53:17;;;;;;;33.08;31.52;;;43.70;27.00;;;;;;6213675;23;20669;-93
2022/07/22 10:56:02;;;;;;;36.40;34.72;;;;;;;;;;6212222;23;20001;-93
2022/07/22 10:58:34;;;;;;;34.13;32.60;;;43.20;26.30;;;;;;6211471;23;20012;-94
2022/07/22 11:01:06;;;;;;;34.70;32.90;;;43.00;26.90;;;;;;6210548;23;20239;-94
2022/07/22 11:03:32;;;;;;;32.58;31.02;;;;;;;;;;6210389;23;20455;-91
2022/07/22 11:06:17;;;;;;;37.83;35.67;;;42.00;26.60;;;;;;6212093;23;20011;-93
2022/07/22 11:08:44;;;;;;;39.35;37.50;;;41.50;26.90;;;;;;6213390;23;20479;-93
2022/07/22 11:11:10;;;;;;;37.65;35.72;;;;;;;;;;6212289;23;20017;-93
2022/07/22 11:13:37;;;;;;;37.92;36.15;;;;;;;;;;6213684;23;19996;-93
2022/07/22 11:16:24;;;;;;;38.95;37.15;;;39.90;29.10;;;;;;6213348;23;20031;-95
2022/07/22 11:19:00;;;;;;;40.03;38.00;;;;;;;;;;6186754;23;20008;-94
2022/07/22 11:21:31;;;;;;;39.78;37.92;;;39.20;27.90;;;;;;6187053;23;20087;-94
2022/07/22 11:23:58;;;;;;;42.63;40.58;;;;;;;;;;6211938;23;19998;-92
2022/07/22 11:26:46;;;;;;;41.72;39.67;;;;;;;;;;6213688;23;20008;-93
2022/07/22 11:29:18;;;;;;;44.03;41.88;;;37.90;27.60;;;;;;6213603;23;20383;-93
2022/07/22 11:31:44;;;;;;;41.72;39.40;;;;;;;;;;6213321;23;20260;-93
2022/07/22 11:34:11;;;;;;;46.55;43.78;;;;;;;;;;6213620;23;20012;-94
2022/07/22 11:36:41;;;;;;;42.55;40.65;;;37.30;27.40;;;;;;6187693;23;20008;-93
2022/07/22 11:39:09;;;;;;;45.45;43.30;;;37.00;27.40;;;;;;6214715;23;20692;-94
2022/07/22 11:41:35;;;;;;;46.35;44.10;;;36.80;27.30;;;;;;6215198;23;20000;-95
2022/07/22 11:44:01;;;;;;;46.53;44.40;;;;;;;;;;6215569;23;20004;-93
2022/07/22 11:46:28;;;;;;;44.40;42.40;;;;;;;;;;6215195;23;20098;-94
2022/07/22 11:48:56;;;;;;;44.58;42.35;;;36.40;27.90;;;;;;6215212;23;20478;-94
2022/07/22 11:51:27;;;;;;;43.47;41.42;;;;;;;;;;6215031;23;20386;-95
2022/07/22 11:53:53;;;;;;;49.10;46.63;;;;;;;;;;6215295;23;20004;-93
2022/07/22 11:56:20;;;;;;;44.58;42.33;;;;;;;;;;6215196;23;20063;-93
2022/07/22 11:58:47;;;;;;;;;;;35.90;28.00;;;;;;6215368;23;20015;-93
2022/07/22 12:01:14;;;;;;;42.22;40.22;;;;;;;;;;6215219;23;19900;-94
2022/07/22 12:03:42;;;;;;;42.33;40.00;;;;;;;;;;6214857;23;20455;-94
2022/07/22 12:06:09;;;;;;;41.80;39.80;;;;;;;;;;6214943;23;20019;-93
2022/07/22 12:08:40;;;;;;;39.08;37.30;;;;;;;;;;6215154;23;20009;-92
2022/07/22 12:11:06;;;;;;;43.78;41.85;;;;;;;;;;6215339;23;20012;-93
2022/07/22 12:13:32;;;;;;;41.53;39.35;;;;;;;;;;6214941;23;20000;-96
2022/07/22 12:15:58;;;;;;;40.13;38.22;;;;;;;;;;6215010;23;20035;-92
2022/07/22 12:18:26;;;;;;;38.05;36.15;;;35.10;29.30;;;;;;6214722;23;20004;-95
2022/07/22 12:20:53;;;;;;;39.70;37.65;;;;;;;;;;6215104;23;20324;-94
2022/07/22 12:23:18;;;;;;;;;;;35.20;28.50;;;;;;6215551;23;20013;-94
2022/07/22 12:25:51;;;;;;;39.90;36.13;;;;;;;;;;6189337;23;19982;-93
2022/07/22 12:28:17;;;;;;;37.80;35.70;;;;;;;;;;6214889;23;20008;-94
2022/07/22 12:30:43;;;;;;;37.42;34.95;;;;;;;;;;6189270;23;20083;-93
2022/07/22 12:33:16;;;;;;;37.63;35.60;;;34.80;28.50;;;;;;6214858;23;20090;-93
2022/07/22 12:35:43;;;;;;;37.40;35.55;;;;;;;;;;6214631;23;20004;-95
2022/07/22 12:38:10;;;;;;;39.20;37.38;;;;;;;;;;6215111;23;20091;-94
2022/07/22 12:40:36;;;;;;;37.00;35.10;;;;;;;;;;6214805;23;20340;-94
2022/07/22 12:43:02;;;;;;;37.55;35.78;;;;;;;;;;6214942;23;20007;-94
2022/07/22 12:45:32;;;;;;;36.33;34.70;;;;;;;;;;6215222;23;20080;-94
2022/07/22 12:48:07;;;;;;;38.42;36.38;;;34.70;28.90;;;;;;6214671;23;20228;-95
2022/07/22 12:50:33;;;;;;;37.25;34.90;;;;;;;;;;6214810;23;20395;-93
2022/07/22 12:53:05;;;;;;;38.05;36.15;;;;;;;;;;6187786;23;20019;-94
2022/07/22 12:55:32;;;;;;;34.67;32.78;;;;;;;;;;6215017;23;20000;-93
2022/07/22 12:57:58;;;;;;;38.17;36.13;;;;;;;;;;6214689;23;20001;-94
2022/07/22 13:00:26;;;;;;;34.60;32.90;;;34.40;33.00;;;;;;6188365;23;20008;-95
2022/07/22 13:02:53;;;;;;;35.92;34.03;;;34.30;35.40;;;;;;6188085;23;20027;-94
2022/07/22 13:05:19;;;;;;;33.83;32.35;;;;;;;;;;6214650;23;20005;-94
2022/07/22 13:07:45;;;;;;;35.25;33.55;;;;;;;;;;6213194;23;20451;-93
2022/07/22 13:10:12;;;;;;;32.47;30.73;;;34.20;37.10;;;;;;6215016;23;20028;-94
2022/07/22 13:12:39;;;;;;;34.63;32.88;;;;;;;;;;6213735;23;20317;-94
2022/07/22 13:15:05;;;;;;;29.58;28.08;;;;;;;;;;6213328;23;20537;-93
2022/07/22 13:17:31;;;;;;;31.45;29.70;;;;;;;;;;6214533;23;20004;-94
2022/07/22 13:19:57;;;;;;;32.47;30.58;;;;;;;;;;6214592;23;20003;-94
2022/07/22 13:22:23;;;;;;;30.58;29.08;;;;;;;;;;6214869;23;20378;-95
2022/07/22 13:24:49;;;;;;;30.10;28.60;;;;;;;;;;6213474;23;20100;-93
2022/07/22 13:27:15;;;;;;;29.25;27.35;;;;;;;;;;6214808;23;20224;-94
2022/07/22 13:29:41;;;;;;;28.83;27.23;;;;;;;;;;6214634;23;20047;-92
2022/07/22 13:32:07;;;;;;;31.35;29.75;;;;;;;;;;6212901;23;20359;-94
2022/07/22 13:34:33;;;;;;;28.40;26.97;;;;;;;;;;6213348;23;20000;-94
2022/07/22 13:37:00;;;;;;;27.60;26.13;;;34.20;36.80;;;;;;6214184;23;20274;-93
2022/07/22 13:39:26;;;;;;;29.95;28.38;;;;;;;;;;6215081;23;20219;-95
2022/07/22 13:41:52;;;;;;;30.38;28.67;;;;;;;;;;6214129;23;20011;-94
2022/07/22 13:44:18;;;;;;;28.45;27.10;;;;;;;;;;6214460;23;20444;-94
2022/07/22 13:46:45;;;;;;;29.02;27.58;;;;;;;;;;6214081;23;20444;-94
2022/07/22 13:49:12;;;;;;;29.13;27.52;;;34.20;37.20;;;;;;6214198;23;20012;-93
2022/07/22 13:51:37;;;;;;;;;;;34.20;36.70;;;;;;6238714;23;20518;-93
2022/07/22 13:54:04;;;;;;;27.33;25.93;;;;;;;;;;6215084;23;19942;-94
2022/07/22 13:56:30;;;;;;;26.65;25.35;;;;;;;;;;6214653;23;20227;-95
2022/07/22 13:58:56;;;;;;;31.13;29.38;;;;;;;;;;6214013;23;20004;-94
2022/07/22 14:01:22;;;;;;;29.52;27.45;;;;;;;;;;6214632;23;20039;-94